Hernandez, New Mexico
Current Conditions -  °F | °C
As of 3:55 AM on Wednesday 22 Oct 2014 (Local Time) from KLAM Reporting Station
Clear Clear  
Wind Chill: 48°   Ceiling: Unl
Heat Index: 48°   Visibility: 10mi
Dew Point: 44°   Wind: 0mph
Humidity: 84%   Direction: NA
Pressure: 30.19"   Gusts: NA
Location:  36.06°N, 106.12°W
Report Text: KLAM 220955Z AUTO 00000KT 10SM CLR 09/06 A3019 RMK AO2 T00900064
Loading
Personal Weather Stations






























Interactive Weather Map
Tropical Storm Tracking
New forecast layout! Learn more

10-Day Weather Forecast

Advertisements
Track Severe Weather on mobile